sensor_id;sensor_type;location;lat;lon;timestamp;P1;durP1;ratioP1;P2;durP2;ratioP2
6358;SDS011;3212;51.460;11.868;2022-08-21T00:03:10;14.80;;;11.20;;
6358;SDS011;3212;51.460;11.868;2022-08-21T00:06:33;15.83;;;11.60;;
6358;SDS011;3212;51.460;11.868;2022-08-21T00:09:55;15.37;;;12.37;;
6358;SDS011;3212;51.460;11.868;2022-08-21T00:13:18;18.17;;;12.90;;
6358;SDS011;3212;51.460;11.868;2022-08-21T00:16:40;17.27;;;12.77;;
6358;SDS011;3212;51.460;11.868;2022-08-21T00:20:05;17.03;;;12.67;;
6358;SDS011;3212;51.460;11.868;2022-08-21T00:23:26;19.43;;;13.37;;
6358;SDS011;3212;51.460;11.868;2022-08-21T00:26:49;18.40;;;12.10;;
6358;SDS011;3212;51.460;11.868;2022-08-21T00:30:13;17.37;;;11.30;;
6358;SDS011;3212;51.460;11.868;2022-08-21T00:33:35;18.23;;;11.67;;
6358;SDS011;3212;51.460;11.868;2022-08-21T00:36:58;14.00;;;11.00;;
6358;SDS011;3212;51.460;11.868;2022-08-21T00:40:22;14.40;;;11.20;;
6358;SDS011;3212;51.460;11.868;2022-08-21T00:43:45;12.53;;;9.70;;
6358;SDS011;3212;51.460;11.868;2022-08-21T00:47:07;13.53;;;10.50;;
6358;SDS011;3212;51.460;11.868;2022-08-21T00:50:31;13.47;;;9.87;;
6358;SDS011;3212;51.460;11.868;2022-08-21T00:53:56;13.27;;;9.70;;
6358;SDS011;3212;51.460;11.868;2022-08-21T00:57:17;11.97;;;8.80;;
6358;SDS011;3212;51.460;11.868;2022-08-21T01:00:39;14.60;;;9.40;;
6358;SDS011;3212;51.460;11.868;2022-08-21T01:04:01;13.23;;;9.30;;
6358;SDS011;3212;51.460;11.868;2022-08-21T01:07:23;11.50;;;8.63;;
6358;SDS011;3212;51.460;11.868;2022-08-21T01:10:46;13.27;;;9.83;;
6358;SDS011;3212;51.460;11.868;2022-08-21T01:14:09;10.73;;;8.53;;
6358;SDS011;3212;51.460;11.868;2022-08-21T01:17:31;11.80;;;8.00;;
6358;SDS011;3212;51.460;11.868;2022-08-21T01:21:01;13.17;;;8.80;;
6358;SDS011;3212;51.460;11.868;2022-08-21T01:24:22;12.40;;;8.87;;
6358;SDS011;3212;51.460;11.868;2022-08-21T01:27:45;13.30;;;8.70;;
6358;SDS011;3212;51.460;11.868;2022-08-21T01:31:07;12.60;;;8.83;;
6358;SDS011;3212;51.460;11.868;2022-08-21T01:34:29;12.10;;;8.30;;
6358;SDS011;3212;51.460;11.868;2022-08-21T01:37:52;12.90;;;9.20;;
6358;SDS011;3212;51.460;11.868;2022-08-21T01:41:15;11.33;;;8.10;;
6358;SDS011;3212;51.460;11.868;2022-08-21T01:44:37;11.20;;;8.80;;
6358;SDS011;3212;51.460;11.868;2022-08-21T01:48:00;12.67;;;9.00;;
6358;SDS011;3212;51.460;11.868;2022-08-21T01:51:24;10.87;;;7.53;;
6358;SDS011;3212;51.460;11.868;2022-08-21T01:54:46;17.93;;;8.23;;
6358;SDS011;3212;51.460;11.868;2022-08-21T01:58:09;8.53;;;6.60;;
6358;SDS011;3212;51.460;11.868;2022-08-21T02:01:31;9.70;;;7.50;;
6358;SDS011;3212;51.460;11.868;2022-08-21T02:04:54;11.90;;;6.70;;
6358;SDS011;3212;51.460;11.868;2022-08-21T02:08:16;9.83;;;7.33;;
6358;SDS011;3212;51.460;11.868;2022-08-21T02:11:38;11.00;;;7.67;;
6358;SDS011;3212;51.460;11.868;2022-08-21T02:15:03;14.20;;;7.47;;
6358;SDS011;3212;51.460;11.868;2022-08-21T02:18:24;10.60;;;7.03;;
6358;SDS011;3212;51.460;11.868;2022-08-21T02:21:47;12.07;;;7.90;;
6358;SDS011;3212;51.460;11.868;2022-08-21T02:25:10;10.43;;;7.20;;
6358;SDS011;3212;51.460;11.868;2022-08-21T02:28:33;12.80;;;7.33;;
6358;SDS011;3212;51.460;11.868;2022-08-21T02:31:55;11.83;;;7.33;;
6358;SDS011;3212;51.460;11.868;2022-08-21T02:35:18;10.83;;;7.97;;
6358;SDS011;3212;51.460;11.868;2022-08-21T02:38:41;9.53;;;7.10;;
6358;SDS011;3212;51.460;11.868;2022-08-21T02:42:03;9.50;;;6.90;;
6358;SDS011;3212;51.460;11.868;2022-08-21T02:45:27;11.60;;;6.73;;
6358;SDS011;3212;51.460;11.868;2022-08-21T02:48:50;9.27;;;6.97;;
6358;SDS011;3212;51.460;11.868;2022-08-21T02:52:13;9.50;;;7.03;;
6358;SDS011;3212;51.460;11.868;2022-08-21T02:55:37;9.67;;;6.57;;
6358;SDS011;3212;51.460;11.868;2022-08-21T02:58:59;9.63;;;6.70;;
6358;SDS011;3212;51.460;11.868;2022-08-21T03:02:21;8.27;;;6.47;;
6358;SDS011;3212;51.460;11.868;2022-08-21T03:05:44;10.70;;;6.83;;
6358;SDS011;3212;51.460;11.868;2022-08-21T03:09:06;7.80;;;6.50;;
6358;SDS011;3212;51.460;11.868;2022-08-21T03:12:29;8.80;;;6.40;;
6358;SDS011;3212;51.460;11.868;2022-08-21T03:15:51;7.97;;;6.30;;
6358;SDS011;3212;51.460;11.868;2022-08-21T03:19:14;10.00;;;6.67;;
6358;SDS011;3212;51.460;11.868;2022-08-21T03:22:37;9.80;;;6.30;;
6358;SDS011;3212;51.460;11.868;2022-08-21T03:25:59;7.00;;;5.67;;
6358;SDS011;3212;51.460;11.868;2022-08-21T03:29:22;13.30;;;6.37;;
6358;SDS011;3212;51.460;11.868;2022-08-21T03:32:45;7.07;;;5.70;;
6358;SDS011;3212;51.460;11.868;2022-08-21T03:36:07;10.20;;;5.87;;
6358;SDS011;3212;51.460;11.868;2022-08-21T03:39:30;7.70;;;5.57;;
6358;SDS011;3212;51.460;11.868;2022-08-21T03:42:54;6.70;;;5.00;;
6358;SDS011;3212;51.460;11.868;2022-08-21T03:46:17;13.23;;;4.97;;
6358;SDS011;3212;51.460;11.868;2022-08-21T03:49:39;7.63;;;4.87;;
6358;SDS011;3212;51.460;11.868;2022-08-21T03:53:01;7.00;;;4.83;;
6358;SDS011;3212;51.460;11.868;2022-08-21T03:56:25;7.83;;;5.60;;
6358;SDS011;3212;51.460;11.868;2022-08-21T03:59:47;6.87;;;4.60;;
6358;SDS011;3212;51.460;11.868;2022-08-21T04:03:09;5.77;;;4.90;;
6358;SDS011;3212;51.460;11.868;2022-08-21T04:06:32;11.77;;;5.05;;
6358;SDS011;3212;51.460;11.868;2022-08-21T04:09:54;6.37;;;4.40;;
6358;SDS011;3212;51.460;11.868;2022-08-21T04:13:17;9.77;;;4.93;;
6358;SDS011;3212;51.460;11.868;2022-08-21T04:16:40;8.63;;;5.00;;
6358;SDS011;3212;51.460;11.868;2022-08-21T04:20:02;5.50;;;4.40;;
6358;SDS011;3212;51.460;11.868;2022-08-21T04:23:25;5.33;;;4.07;;
6358;SDS011;3212;51.460;11.868;2022-08-21T04:26:47;4.87;;;3.80;;
6358;SDS011;3212;51.460;11.868;2022-08-21T04:30:10;4.40;;;3.93;;
6358;SDS011;3212;51.460;11.868;2022-08-21T04:33:34;5.22;;;3.67;;
6358;SDS011;3212;51.460;11.868;2022-08-21T04:36:57;5.87;;;4.20;;
6358;SDS011;3212;51.460;11.868;2022-08-21T04:40:20;6.17;;;3.60;;
6358;SDS011;3212;51.460;11.868;2022-08-21T04:43:42;6.53;;;3.40;;
6358;SDS011;3212;51.460;11.868;2022-08-21T04:47:04;4.83;;;3.60;;
6358;SDS011;3212;51.460;11.868;2022-08-21T04:50:28;4.67;;;3.60;;
6358;SDS011;3212;51.460;11.868;2022-08-21T04:53:54;5.37;;;3.80;;
6358;SDS011;3212;51.460;11.868;2022-08-21T04:57:16;6.63;;;3.47;;
6358;SDS011;3212;51.460;11.868;2022-08-21T05:00:39;6.13;;;3.83;;
6358;SDS011;3212;51.460;11.868;2022-08-21T05:04:02;7.80;;;3.70;;
6358;SDS011;3212;51.460;11.868;2022-08-21T05:07:26;7.13;;;3.53;;
6358;SDS011;3212;51.460;11.868;2022-08-21T05:10:46;5.63;;;3.93;;
6358;SDS011;3212;51.460;11.868;2022-08-21T05:14:09;5.73;;;3.40;;
6358;SDS011;3212;51.460;11.868;2022-08-21T05:17:32;6.17;;;3.70;;
6358;SDS011;3212;51.460;11.868;2022-08-21T05:20:55;5.07;;;3.17;;
6358;SDS011;3212;51.460;11.868;2022-08-21T05:24:19;3.60;;;3.30;;
6358;SDS011;3212;51.460;11.868;2022-08-21T05:27:41;4.93;;;3.90;;
6358;SDS011;3212;51.460;11.868;2022-08-21T05:31:03;5.10;;;3.50;;
6358;SDS011;3212;51.460;11.868;2022-08-21T05:34:26;5.50;;;3.50;;
6358;SDS011;3212;51.460;11.868;2022-08-21T05:37:49;6.97;;;3.90;;
6358;SDS011;3212;51.460;11.868;2022-08-21T05:41:11;9.70;;;3.47;;
6358;SDS011;3212;51.460;11.868;2022-08-21T05:44:34;4.93;;;3.50;;
6358;SDS011;3212;51.460;11.868;2022-08-21T05:47:57;6.43;;;3.80;;
6358;SDS011;3212;51.460;11.868;2022-08-21T05:51:19;9.93;;;3.70;;
6358;SDS011;3212;51.460;11.868;2022-08-21T05:54:42;3.60;;;3.30;;
6358;SDS011;3212;51.460;11.868;2022-08-21T05:58:05;7.10;;;3.63;;
6358;SDS011;3212;51.460;11.868;2022-08-21T06:01:27;7.50;;;3.40;;
6358;SDS011;3212;51.460;11.868;2022-08-21T06:04:50;5.13;;;3.10;;
6358;SDS011;3212;51.460;11.868;2022-08-21T06:08:14;4.60;;;3.47;;
6358;SDS011;3212;51.460;11.868;2022-08-21T06:11:37;6.33;;;3.30;;
6358;SDS011;3212;51.460;11.868;2022-08-21T06:15:00;3.43;;;3.13;;
6358;SDS011;3212;51.460;11.868;2022-08-21T06:18:22;5.20;;;3.27;;
6358;SDS011;3212;51.460;11.868;2022-08-21T06:21:46;5.83;;;3.30;;
6358;SDS011;3212;51.460;11.868;2022-08-21T06:25:09;8.80;;;2.80;;
6358;SDS011;3212;51.460;11.868;2022-08-21T06:28:32;7.70;;;2.93;;
6358;SDS011;3212;51.460;11.868;2022-08-21T06:31:55;6.43;;;2.80;;
6358;SDS011;3212;51.460;11.868;2022-08-21T06:35:18;3.83;;;2.70;;
6358;SDS011;3212;51.460;11.868;2022-08-21T06:38:40;5.53;;;2.83;;
6358;SDS011;3212;51.460;11.868;2022-08-21T06:42:03;4.60;;;3.20;;
6358;SDS011;3212;51.460;11.868;2022-08-21T06:45:25;5.70;;;3.40;;
6358;SDS011;3212;51.460;11.868;2022-08-21T06:48:48;5.60;;;2.93;;
6358;SDS011;3212;51.460;11.868;2022-08-21T06:52:11;6.50;;;3.03;;
6358;SDS011;3212;51.460;11.868;2022-08-21T06:55:33;3.50;;;2.63;;
6358;SDS011;3212;51.460;11.868;2022-08-21T06:58:56;5.50;;;2.80;;
6358;SDS011;3212;51.460;11.868;2022-08-21T07:02:18;3.30;;;2.37;;
6358;SDS011;3212;51.460;11.868;2022-08-21T07:05:41;5.72;;;2.72;;
6358;SDS011;3212;51.460;11.868;2022-08-21T07:09:04;4.50;;;3.03;;
6358;SDS011;3212;51.460;11.868;2022-08-21T07:12:26;3.60;;;2.60;;
6358;SDS011;3212;51.460;11.868;2022-08-21T07:15:48;4.37;;;2.80;;
6358;SDS011;3212;51.460;11.868;2022-08-21T07:19:11;5.30;;;2.97;;
6358;SDS011;3212;51.460;11.868;2022-08-21T07:22:35;5.17;;;3.20;;
6358;SDS011;3212;51.460;11.868;2022-08-21T07:25:57;4.10;;;3.07;;
6358;SDS011;3212;51.460;11.868;2022-08-21T07:29:21;5.95;;;3.03;;
6358;SDS011;3212;51.460;11.868;2022-08-21T07:32:43;5.00;;;2.50;;
6358;SDS011;3212;51.460;11.868;2022-08-21T07:36:06;4.67;;;2.60;;
6358;SDS011;3212;51.460;11.868;2022-08-21T07:39:29;5.40;;;3.33;;
6358;SDS011;3212;51.460;11.868;2022-08-21T07:42:51;3.63;;;2.13;;
6358;SDS011;3212;51.460;11.868;2022-08-21T07:46:15;3.73;;;1.87;;
6358;SDS011;3212;51.460;11.868;2022-08-21T07:49:37;3.57;;;2.10;;
6358;SDS011;3212;51.460;11.868;2022-08-21T07:53:00;3.57;;;2.10;;
6358;SDS011;3212;51.460;11.868;2022-08-21T07:56:23;6.70;;;2.10;;
6358;SDS011;3212;51.460;11.868;2022-08-21T07:59:45;4.40;;;2.53;;
6358;SDS011;3212;51.460;11.868;2022-08-21T08:03:07;3.13;;;2.00;;
6358;SDS011;3212;51.460;11.868;2022-08-21T08:06:31;3.10;;;1.87;;
6358;SDS011;3212;51.460;11.868;2022-08-21T08:09:53;4.87;;;1.73;;
6358;SDS011;3212;51.460;11.868;2022-08-21T08:13:16;5.70;;;2.07;;
6358;SDS011;3212;51.460;11.868;2022-08-21T08:16:38;3.53;;;1.90;;
6358;SDS011;3212;51.460;11.868;2022-08-21T08:20:01;3.63;;;2.33;;
6358;SDS011;3212;51.460;11.868;2022-08-21T08:23:23;4.47;;;2.10;;
6358;SDS011;3212;51.460;11.868;2022-08-21T08:26:46;4.77;;;2.03;;
6358;SDS011;3212;51.460;11.868;2022-08-21T08:30:09;4.47;;;2.17;;
6358;SDS011;3212;51.460;11.868;2022-08-21T08:33:31;8.60;;;2.43;;
6358;SDS011;3212;51.460;11.868;2022-08-21T08:36:54;3.77;;;2.03;;
6358;SDS011;3212;51.460;11.868;2022-08-21T08:40:19;5.00;;;2.30;;
6358;SDS011;3212;51.460;11.868;2022-08-21T08:43:40;2.10;;;1.80;;
6358;SDS011;3212;51.460;11.868;2022-08-21T08:47:04;2.03;;;1.83;;
6358;SDS011;3212;51.460;11.868;2022-08-21T08:50:32;4.33;;;2.10;;
6358;SDS011;3212;51.460;11.868;2022-08-21T08:53:51;3.07;;;2.00;;
6358;SDS011;3212;51.460;11.868;2022-08-21T08:57:16;2.57;;;2.00;;
6358;SDS011;3212;51.460;11.868;2022-08-21T09:00:39;5.67;;;2.20;;
6358;SDS011;3212;51.460;11.868;2022-08-21T09:04:01;4.33;;;2.10;;
6358;SDS011;3212;51.460;11.868;2022-08-21T09:11:22;3.33;;;2.42;;
6358;SDS011;3212;51.460;11.868;2022-08-21T09:14:51;3.43;;;2.10;;
6358;SDS011;3212;51.460;11.868;2022-08-21T09:22:03;4.80;;;2.60;;
6358;SDS011;3212;51.460;11.868;2022-08-21T09:25:49;3.80;;;2.10;;
6358;SDS011;3212;51.460;11.868;2022-08-21T09:29:23;4.60;;;2.20;;
6358;SDS011;3212;51.460;11.868;2022-08-21T09:32:45;3.47;;;2.00;;
6358;SDS011;3212;51.460;11.868;2022-08-21T09:36:07;4.90;;;2.80;;
6358;SDS011;3212;51.460;11.868;2022-08-21T09:39:32;3.50;;;1.93;;
6358;SDS011;3212;51.460;11.868;2022-08-21T09:42:54;6.60;;;1.90;;
6358;SDS011;3212;51.460;11.868;2022-08-21T09:46:20;3.40;;;2.10;;
6358;SDS011;3212;51.460;11.868;2022-08-21T09:49:42;4.80;;;2.10;;
6358;SDS011;3212;51.460;11.868;2022-08-21T09:53:04;3.80;;;2.00;;
6358;SDS011;3212;51.460;11.868;2022-08-21T09:56:29;2.20;;;1.83;;
6358;SDS011;3212;51.460;11.868;2022-08-21T10:00:06;2.67;;;2.03;;
6358;SDS011;3212;51.460;11.868;2022-08-21T10:03:20;2.93;;;1.60;;
6358;SDS011;3212;51.460;11.868;2022-08-21T10:06:41;4.77;;;2.23;;
6358;SDS011;3212;51.460;11.868;2022-08-21T10:10:06;4.07;;;2.13;;
6358;SDS011;3212;51.460;11.868;2022-08-21T10:13:32;3.20;;;1.90;;
6358;SDS011;3212;51.460;11.868;2022-08-21T10:17:01;3.47;;;2.20;;
6358;SDS011;3212;51.460;11.868;2022-08-21T10:20:25;7.03;;;2.50;;
6358;SDS011;3212;51.460;11.868;2022-08-21T10:23:59;5.13;;;2.43;;
6358;SDS011;3212;51.460;11.868;2022-08-21T10:27:37;5.60;;;2.63;;
6358;SDS011;3212;51.460;11.868;2022-08-21T10:31:18;3.60;;;2.10;;
6358;SDS011;3212;51.460;11.868;2022-08-21T10:34:59;2.73;;;2.00;;
6358;SDS011;3212;51.460;11.868;2022-08-21T10:38:32;4.80;;;2.07;;
6358;SDS011;3212;51.460;11.868;2022-08-21T10:42:09;4.33;;;2.20;;
6358;SDS011;3212;51.460;11.868;2022-08-21T10:45:32;4.00;;;1.77;;
6358;SDS011;3212;51.460;11.868;2022-08-21T10:48:58;3.50;;;2.03;;
6358;SDS011;3212;51.460;11.868;2022-08-21T10:56:12;3.37;;;2.10;;
6358;SDS011;3212;51.460;11.868;2022-08-21T10:59:57;2.60;;;2.00;;
6358;SDS011;3212;51.460;11.868;2022-08-21T11:03:33;5.67;;;2.20;;
6358;SDS011;3212;51.460;11.868;2022-08-21T11:06:58;5.70;;;2.20;;
6358;SDS011;3212;51.460;11.868;2022-08-21T11:10:25;4.00;;;2.27;;
6358;SDS011;3212;51.460;11.868;2022-08-21T11:17:30;10.50;;;2.23;;
6358;SDS011;3212;51.460;11.868;2022-08-21T11:20:59;3.07;;;2.03;;
6358;SDS011;3212;51.460;11.868;2022-08-21T11:24:33;2.30;;;1.70;;
6358;SDS011;3212;51.460;11.868;2022-08-21T11:28:01;3.83;;;1.80;;
6358;SDS011;3212;51.460;11.868;2022-08-21T11:35:14;7.77;;;2.60;;
6358;SDS011;3212;51.460;11.868;2022-08-21T11:38:41;2.63;;;1.77;;
6358;SDS011;3212;51.460;11.868;2022-08-21T11:42:09;4.00;;;2.53;;
6358;SDS011;3212;51.460;11.868;2022-08-21T11:45:44;5.70;;;2.07;;
6358;SDS011;3212;51.460;11.868;2022-08-21T11:52:50;4.33;;;2.00;;
6358;SDS011;3212;51.460;11.868;2022-08-21T11:56:14;2.70;;;1.97;;
6358;SDS011;3212;51.460;11.868;2022-08-21T11:59:40;2.43;;;2.03;;
6358;SDS011;3212;51.460;11.868;2022-08-21T12:03:06;2.97;;;2.47;;
6358;SDS011;3212;51.460;11.868;2022-08-21T12:06:32;5.95;;;2.60;;
6358;SDS011;3212;51.460;11.868;2022-08-21T12:09:54;3.83;;;2.20;;
6358;SDS011;3212;51.460;11.868;2022-08-21T12:16:52;3.63;;;2.03;;
6358;SDS011;3212;51.460;11.868;2022-08-21T12:20:16;3.10;;;2.20;;
6358;SDS011;3212;51.460;11.868;2022-08-21T12:23:45;3.73;;;2.20;;
6358;SDS011;3212;51.460;11.868;2022-08-21T12:27:22;3.53;;;2.23;;
6358;SDS011;3212;51.460;11.868;2022-08-21T12:30:46;4.60;;;2.70;;
6358;SDS011;3212;51.460;11.868;2022-08-21T12:34:09;4.53;;;2.40;;
6358;SDS011;3212;51.460;11.868;2022-08-21T12:41:01;3.93;;;2.27;;
6358;SDS011;3212;51.460;11.868;2022-08-21T12:44:34;3.70;;;2.40;;
6358;SDS011;3212;51.460;11.868;2022-08-21T12:48:00;2.63;;;2.43;;
6358;SDS011;3212;51.460;11.868;2022-08-21T12:51:24;2.55;;;2.30;;
6358;SDS011;3212;51.460;11.868;2022-08-21T12:54:47;2.87;;;2.53;;
6358;SDS011;3212;51.460;11.868;2022-08-21T13:01:46;4.03;;;2.30;;
6358;SDS011;3212;51.460;11.868;2022-08-21T13:05:07;5.63;;;1.97;;
6358;SDS011;3212;51.460;11.868;2022-08-21T13:08:29;4.27;;;2.60;;
6358;SDS011;3212;51.460;11.868;2022-08-21T13:11:51;5.10;;;2.77;;
6358;SDS011;3212;51.460;11.868;2022-08-21T13:15:14;3.70;;;2.50;;
6358;SDS011;3212;51.460;11.868;2022-08-21T13:18:39;6.10;;;2.53;;
6358;SDS011;3212;51.460;11.868;2022-08-21T13:22:00;5.23;;;2.37;;
6358;SDS011;3212;51.460;11.868;2022-08-21T13:25:25;2.67;;;2.20;;
6358;SDS011;3212;51.460;11.868;2022-08-21T13:28:48;3.40;;;2.50;;
6358;SDS011;3212;51.460;11.868;2022-08-21T13:32:13;3.67;;;2.67;;
6358;SDS011;3212;51.460;11.868;2022-08-21T13:35:44;3.53;;;2.30;;
6358;SDS011;3212;51.460;11.868;2022-08-21T13:38:58;3.30;;;2.30;;
6358;SDS011;3212;51.460;11.868;2022-08-21T13:42:20;2.90;;;2.43;;
6358;SDS011;3212;51.460;11.868;2022-08-21T13:45:46;3.20;;;2.47;;
6358;SDS011;3212;51.460;11.868;2022-08-21T13:49:07;2.77;;;2.53;;
6358;SDS011;3212;51.460;11.868;2022-08-21T13:52:30;3.40;;;2.40;;
6358;SDS011;3212;51.460;11.868;2022-08-21T13:55:53;2.47;;;2.27;;
6358;SDS011;3212;51.460;11.868;2022-08-21T14:02:46;4.03;;;2.70;;
6358;SDS011;3212;51.460;11.868;2022-08-21T14:06:11;2.60;;;2.20;;
6358;SDS011;3212;51.460;11.868;2022-08-21T14:09:34;4.40;;;2.83;;
6358;SDS011;3212;51.460;11.868;2022-08-21T14:12:58;4.03;;;2.30;;
6358;SDS011;3212;51.460;11.868;2022-08-21T14:16:22;2.90;;;2.60;;
6358;SDS011;3212;51.460;11.868;2022-08-21T14:19:44;3.60;;;2.37;;
6358;SDS011;3212;51.460;11.868;2022-08-21T14:23:06;4.13;;;2.77;;
6358;SDS011;3212;51.460;11.868;2022-08-21T14:26:29;3.00;;;2.70;;
6358;SDS011;3212;51.460;11.868;2022-08-21T14:29:56;5.13;;;2.73;;
6358;SDS011;3212;51.460;11.868;2022-08-21T14:33:17;5.37;;;2.73;;
6358;SDS011;3212;51.460;11.868;2022-08-21T14:36:37;3.33;;;2.50;;
6358;SDS011;3212;51.460;11.868;2022-08-21T14:39:59;3.47;;;2.60;;
6358;SDS011;3212;51.460;11.868;2022-08-21T14:43:21;5.53;;;2.60;;
6358;SDS011;3212;51.460;11.868;2022-08-21T14:46:45;3.60;;;3.00;;
6358;SDS011;3212;51.460;11.868;2022-08-21T14:50:07;3.07;;;2.60;;
6358;SDS011;3212;51.460;11.868;2022-08-21T14:53:30;3.27;;;2.77;;
6358;SDS011;3212;51.460;11.868;2022-08-21T14:56:52;5.87;;;2.70;;
6358;SDS011;3212;51.460;11.868;2022-08-21T15:00:17;6.03;;;2.90;;
6358;SDS011;3212;51.460;11.868;2022-08-21T15:03:39;5.33;;;2.77;;
6358;SDS011;3212;51.460;11.868;2022-08-21T15:07:02;2.50;;;2.30;;
6358;SDS011;3212;51.460;11.868;2022-08-21T15:10:24;3.07;;;2.67;;
6358;SDS011;3212;51.460;11.868;2022-08-21T15:13:47;3.27;;;2.50;;
6358;SDS011;3212;51.460;11.868;2022-08-21T15:17:10;3.30;;;2.70;;
6358;SDS011;3212;51.460;11.868;2022-08-21T15:20:32;3.40;;;2.40;;
6358;SDS011;3212;51.460;11.868;2022-08-21T15:23:54;2.90;;;2.60;;
6358;SDS011;3212;51.460;11.868;2022-08-21T15:27:17;4.97;;;2.57;;
6358;SDS011;3212;51.460;11.868;2022-08-21T15:30:39;3.53;;;2.43;;
6358;SDS011;3212;51.460;11.868;2022-08-21T15:34:02;5.23;;;2.10;;
6358;SDS011;3212;51.460;11.868;2022-08-21T15:37:24;3.10;;;2.70;;
6358;SDS011;3212;51.460;11.868;2022-08-21T15:40:47;3.93;;;2.57;;
6358;SDS011;3212;51.460;11.868;2022-08-21T15:44:10;2.50;;;2.27;;
6358;SDS011;3212;51.460;11.868;2022-08-21T15:47:33;3.30;;;2.40;;
6358;SDS011;3212;51.460;11.868;2022-08-21T15:50:56;4.70;;;2.50;;
6358;SDS011;3212;51.460;11.868;2022-08-21T15:54:18;2.50;;;2.30;;
6358;SDS011;3212;51.460;11.868;2022-08-21T15:57:42;3.00;;;2.50;;
6358;SDS011;3212;51.460;11.868;2022-08-21T16:01:05;3.03;;;2.77;;
6358;SDS011;3212;51.460;11.868;2022-08-21T16:04:28;3.50;;;2.70;;
6358;SDS011;3212;51.460;11.868;2022-08-21T16:07:50;4.47;;;2.77;;
6358;SDS011;3212;51.460;11.868;2022-08-21T16:11:14;3.97;;;2.40;;
6358;SDS011;3212;51.460;11.868;2022-08-21T16:14:36;2.40;;;2.20;;
6358;SDS011;3212;51.460;11.868;2022-08-21T16:17:58;4.17;;;2.90;;
6358;SDS011;3212;51.460;11.868;2022-08-21T16:21:21;3.43;;;2.63;;
6358;SDS011;3212;51.460;11.868;2022-08-21T16:24:43;5.30;;;2.87;;
6358;SDS011;3212;51.460;11.868;2022-08-21T16:28:07;3.60;;;2.60;;
6358;SDS011;3212;51.460;11.868;2022-08-21T16:31:29;6.83;;;2.67;;
6358;SDS011;3212;51.460;11.868;2022-08-21T16:34:51;5.43;;;2.90;;
6358;SDS011;3212;51.460;11.868;2022-08-21T16:38:13;3.97;;;2.57;;
6358;SDS011;3212;51.460;11.868;2022-08-21T16:41:36;5.80;;;2.73;;
6358;SDS011;3212;51.460;11.868;2022-08-21T16:44:58;4.40;;;2.60;;
6358;SDS011;3212;51.460;11.868;2022-08-21T16:48:21;4.03;;;2.53;;
6358;SDS011;3212;51.460;11.868;2022-08-21T16:51:43;7.33;;;2.63;;
6358;SDS011;3212;51.460;11.868;2022-08-21T16:55:06;3.10;;;2.80;;
6358;SDS011;3212;51.460;11.868;2022-08-21T16:58:29;3.57;;;2.83;;
6358;SDS011;3212;51.460;11.868;2022-08-21T17:01:51;3.60;;;3.00;;
6358;SDS011;3212;51.460;11.868;2022-08-21T17:05:14;3.03;;;2.23;;
6358;SDS011;3212;51.460;11.868;2022-08-21T17:08:36;8.70;;;3.40;;
6358;SDS011;3212;51.460;11.868;2022-08-21T17:11:58;4.27;;;2.70;;
6358;SDS011;3212;51.460;11.868;2022-08-21T17:15:23;4.20;;;2.70;;
6358;SDS011;3212;51.460;11.868;2022-08-21T17:18:44;4.27;;;3.03;;
6358;SDS011;3212;51.460;11.868;2022-08-21T17:22:07;4.97;;;3.50;;
6358;SDS011;3212;51.460;11.868;2022-08-21T17:25:29;5.73;;;3.17;;
6358;SDS011;3212;51.460;11.868;2022-08-21T17:28:52;4.17;;;2.87;;
6358;SDS011;3212;51.460;11.868;2022-08-21T17:32:15;6.40;;;2.70;;
6358;SDS011;3212;51.460;11.868;2022-08-21T17:35:37;5.80;;;2.70;;
6358;SDS011;3212;51.460;11.868;2022-08-21T17:39:00;4.37;;;2.57;;
6358;SDS011;3212;51.460;11.868;2022-08-21T17:42:23;4.83;;;2.93;;
6358;SDS011;3212;51.460;11.868;2022-08-21T17:45:45;6.60;;;3.50;;
6358;SDS011;3212;51.460;11.868;2022-08-21T17:49:08;5.23;;;3.13;;
6358;SDS011;3212;51.460;11.868;2022-08-21T17:52:32;3.17;;;2.70;;
6358;SDS011;3212;51.460;11.868;2022-08-21T17:55:54;4.37;;;2.80;;
6358;SDS011;3212;51.460;11.868;2022-08-21T17:59:17;4.50;;;2.73;;
6358;SDS011;3212;51.460;11.868;2022-08-21T18:02:40;4.37;;;2.90;;
6358;SDS011;3212;51.460;11.868;2022-08-21T18:06:03;4.50;;;2.80;;
6358;SDS011;3212;51.460;11.868;2022-08-21T18:09:25;4.30;;;3.40;;
6358;SDS011;3212;51.460;11.868;2022-08-21T18:12:49;6.57;;;3.57;;
6358;SDS011;3212;51.460;11.868;2022-08-21T18:16:11;4.80;;;3.33;;
6358;SDS011;3212;51.460;11.868;2022-08-21T18:19:34;4.50;;;3.40;;
6358;SDS011;3212;51.460;11.868;2022-08-21T18:22:57;3.10;;;2.80;;
6358;SDS011;3212;51.460;11.868;2022-08-21T18:26:26;5.83;;;3.10;;
6358;SDS011;3212;51.460;11.868;2022-08-21T18:29:53;6.23;;;3.47;;
6358;SDS011;3212;51.460;11.868;2022-08-21T18:33:11;6.87;;;4.20;;
6358;SDS011;3212;51.460;11.868;2022-08-21T18:36:33;6.37;;;3.97;;
6358;SDS011;3212;51.460;11.868;2022-08-21T18:39:57;6.03;;;3.97;;
6358;SDS011;3212;51.460;11.868;2022-08-21T18:43:19;5.97;;;3.43;;
6358;SDS011;3212;51.460;11.868;2022-08-21T18:46:42;7.43;;;4.40;;
6358;SDS011;3212;51.460;11.868;2022-08-21T18:50:07;6.20;;;4.00;;
6358;SDS011;3212;51.460;11.868;2022-08-21T18:53:29;5.50;;;3.70;;
6358;SDS011;3212;51.460;11.868;2022-08-21T18:56:51;2.78;;;2.58;;
6358;SDS011;3212;51.460;11.868;2022-08-21T19:00:16;3.50;;;2.80;;
6358;SDS011;3212;51.460;11.868;2022-08-21T19:03:37;3.90;;;3.33;;
6358;SDS011;3212;51.460;11.868;2022-08-21T19:07:00;6.70;;;3.33;;
6358;SDS011;3212;51.460;11.868;2022-08-21T19:10:22;4.00;;;3.10;;
6358;SDS011;3212;51.460;11.868;2022-08-21T19:13:45;3.43;;;2.97;;
6358;SDS011;3212;51.460;11.868;2022-08-21T19:17:07;6.33;;;3.70;;
6358;SDS011;3212;51.460;11.868;2022-08-21T19:20:31;5.70;;;4.40;;
6358;SDS011;3212;51.460;11.868;2022-08-21T19:23:52;8.00;;;4.20;;
6358;SDS011;3212;51.460;11.868;2022-08-21T19:27:14;6.30;;;4.33;;
6358;SDS011;3212;51.460;11.868;2022-08-21T19:30:40;7.10;;;3.70;;
6358;SDS011;3212;51.460;11.868;2022-08-21T19:34:01;13.80;;;4.17;;
6358;SDS011;3212;51.460;11.868;2022-08-21T19:37:22;6.20;;;3.70;;
6358;SDS011;3212;51.460;11.868;2022-08-21T19:40:45;4.20;;;3.47;;
6358;SDS011;3212;51.460;11.868;2022-08-21T19:44:08;4.80;;;3.77;;
6358;SDS011;3212;51.460;11.868;2022-08-21T19:47:30;7.70;;;3.67;;
6358;SDS011;3212;51.460;11.868;2022-08-21T19:50:52;4.10;;;3.70;;
6358;SDS011;3212;51.460;11.868;2022-08-21T19:54:17;5.27;;;3.33;;
6358;SDS011;3212;51.460;11.868;2022-08-21T19:57:41;5.57;;;3.60;;
6358;SDS011;3212;51.460;11.868;2022-08-21T20:01:06;8.40;;;3.87;;
6358;SDS011;3212;51.460;11.868;2022-08-21T20:04:30;4.57;;;3.53;;
6358;SDS011;3212;51.460;11.868;2022-08-21T20:07:51;5.93;;;4.00;;
6358;SDS011;3212;51.460;11.868;2022-08-21T20:11:16;6.87;;;4.20;;
6358;SDS011;3212;51.460;11.868;2022-08-21T20:14:40;5.40;;;3.67;;
6358;SDS011;3212;51.460;11.868;2022-08-21T20:18:01;5.00;;;3.77;;
6358;SDS011;3212;51.460;11.868;2022-08-21T20:21:23;9.13;;;3.90;;
6358;SDS011;3212;51.460;11.868;2022-08-21T20:24:46;4.33;;;3.60;;
6358;SDS011;3212;51.460;11.868;2022-08-21T20:28:09;6.17;;;4.07;;
6358;SDS011;3212;51.460;11.868;2022-08-21T20:31:31;5.63;;;4.33;;
6358;SDS011;3212;51.460;11.868;2022-08-21T20:34:53;6.40;;;4.00;;
6358;SDS011;3212;51.460;11.868;2022-08-21T20:38:16;4.50;;;3.90;;
6358;SDS011;3212;51.460;11.868;2022-08-21T20:41:39;6.23;;;4.03;;
6358;SDS011;3212;51.460;11.868;2022-08-21T20:45:02;6.67;;;4.20;;
6358;SDS011;3212;51.460;11.868;2022-08-21T20:48:27;4.63;;;3.70;;
6358;SDS011;3212;51.460;11.868;2022-08-21T20:51:49;6.50;;;4.43;;
6358;SDS011;3212;51.460;11.868;2022-08-21T20:55:12;5.70;;;4.00;;
6358;SDS011;3212;51.460;11.868;2022-08-21T20:58:37;4.70;;;4.07;;
6358;SDS011;3212;51.460;11.868;2022-08-21T21:02:03;7.30;;;4.30;;
6358;SDS011;3212;51.460;11.868;2022-08-21T21:05:30;5.97;;;4.50;;
6358;SDS011;3212;51.460;11.868;2022-08-21T21:08:53;7.03;;;4.30;;
6358;SDS011;3212;51.460;11.868;2022-08-21T21:12:19;8.50;;;5.30;;
6358;SDS011;3212;51.460;11.868;2022-08-21T21:15:41;9.47;;;4.53;;
6358;SDS011;3212;51.460;11.868;2022-08-21T21:19:05;7.00;;;4.40;;